createdAt,value
2022-11-05T00:00:49.394Z,100927.03
2022-11-05T00:05:09.743Z,100929.34
2022-11-05T00:09:29.566Z,100932.41
2022-11-05T00:13:49.419Z,100937.63
2022-11-05T00:17:50.818Z,100941.22
2022-11-05T00:22:10.752Z,100943.84
2022-11-05T00:26:12.896Z,100937.66
2022-11-05T00:30:18.187Z,100949.25
2022-11-05T00:34:19.752Z,100950.97
2022-11-05T00:38:21.440Z,100951.03
2022-11-05T00:42:41.782Z,100943.28
2022-11-05T00:46:43.185Z,100955.66
2022-11-05T00:50:44.657Z,100956.59
2022-11-05T00:54:46.112Z,100962.06
2022-11-05T00:58:48.796Z,100965.75
2022-11-05T01:02:50.475Z,100971.94
2022-11-05T01:06:52.071Z,100973.03
2022-11-05T01:10:56.112Z,100976.38
2022-11-05T01:14:57.961Z,100981.84
2022-11-05T01:19:00.869Z,100992.41
2022-11-05T01:23:02.305Z,100987.97
2022-11-05T01:27:03.859Z,100984.38
2022-11-05T01:31:05.499Z,100977.25
2022-11-05T01:35:10.166Z,100988.75
2022-11-05T01:39:11.574Z,100985.44
2022-11-05T01:43:22.207Z,100990.72
2022-11-05T01:47:29.628Z,100993.50
2022-11-05T01:51:31.418Z,100992.72
2022-11-05T01:55:37.062Z,101007.75
2022-11-05T01:59:43.842Z,101006.25
2022-11-05T02:03:48.414Z,101006.28
2022-11-05T02:07:50.453Z,101020.47
2022-11-05T02:11:52.028Z,101027.56
2022-11-05T02:16:10.157Z,101027.66
2022-11-05T02:20:45.705Z,101027.69
2022-11-05T02:25:04.299Z,101027.72
2022-11-05T02:29:14.961Z,101028.69
2022-11-05T02:33:30.997Z,101029.66
2022-11-05T02:38:07.531Z,101023.41
2022-11-05T02:42:16.960Z,101025.25
2022-11-05T02:46:27.241Z,101023.47
2022-11-05T02:50:36.456Z,101021.94
2022-11-05T02:54:45.653Z,101018.31
2022-11-05T02:58:47.067Z,101026.31
2022-11-05T03:02:48.739Z,101034.34
2022-11-05T03:07:13.370Z,101035.19
2022-11-05T03:11:20.494Z,101031.72
2022-11-05T03:16:05.863Z,101028.16
2022-11-05T03:20:19.768Z,101029.06
2022-11-05T03:24:28.349Z,101033.53
2022-11-05T03:28:32.767Z,101029.06
2022-11-05T03:32:39.614Z,101034.38
2022-11-05T03:36:47.013Z,101038.72
2022-11-05T03:40:53.329Z,101041.38
2022-11-05T03:44:58.102Z,101042.25
2022-11-05T03:49:02.825Z,101044.88
2022-11-05T03:53:15.450Z,101039.59
2022-11-05T03:57:24.915Z,101041.34
2022-11-05T04:01:27.440Z,101045.78
2022-11-05T04:05:29.205Z,101054.69
2022-11-05T04:09:49.210Z,101055.56
2022-11-05T04:13:50.613Z,101065.31
2022-11-05T04:17:52.034Z,101069.78
2022-11-05T04:22:12.216Z,101067.97
2022-11-05T04:26:13.572Z,101082.09
2022-11-05T04:30:20.486Z,101081.28
2022-11-05T04:34:22.380Z,101089.16
2022-11-05T04:38:23.837Z,101086.69
2022-11-05T04:42:25.246Z,101087.47
2022-11-05T04:46:26.648Z,101088.41
2022-11-05T04:50:28.254Z,101091.97
2022-11-05T04:54:29.867Z,101089.31
2022-11-05T04:58:31.282Z,101094.63
2022-11-05T05:02:33.274Z,101089.31
2022-11-05T05:06:34.687Z,101096.38
2022-11-05T05:10:36.151Z,101091.09
2022-11-05T05:14:37.600Z,101097.31
2022-11-05T05:18:43.619Z,101102.56
2022-11-05T05:22:54.695Z,101112.31
2022-11-05T05:26:56.147Z,101114.09
2022-11-05T05:31:00.981Z,101115.00
2022-11-05T05:35:02.426Z,101121.16
2022-11-05T05:39:08.110Z,101126.44
2022-11-05T05:43:09.950Z,101139.69
2022-11-05T05:47:11.555Z,101137.06
2022-11-05T05:51:13.043Z,101137.03
2022-11-05T05:55:14.507Z,101140.59
2022-11-05T05:59:15.914Z,101139.69
2022-11-05T06:03:17.338Z,101144.09
2022-11-05T06:07:18.740Z,101145.91
2022-11-05T06:11:20.251Z,101155.59
2022-11-05T06:15:21.741Z,101152.06
2022-11-05T06:19:23.146Z,101150.31
2022-11-05T06:23:24.564Z,101155.56
2022-11-05T06:27:25.964Z,101159.09
2022-11-05T06:31:27.527Z,101154.69
2022-11-05T06:35:28.982Z,101169.72
2022-11-05T06:39:30.409Z,101176.78
2022-11-05T06:43:31.828Z,101179.44
2022-11-05T06:47:33.325Z,101183.84
2022-11-05T06:51:34.724Z,101186.50
2022-11-05T06:55:36.134Z,101189.13
2022-11-05T06:59:38.801Z,101177.63
2022-11-05T07:03:40.225Z,101180.25
2022-11-05T07:07:43.894Z,101183.84
2022-11-05T07:11:45.377Z,101191.75
2022-11-05T07:15:46.821Z,101196.16
2022-11-05T07:19:48.282Z,101208.50
2022-11-05T07:23:49.781Z,101213.78
2022-11-05T07:27:51.372Z,101221.75
2022-11-05T07:31:52.832Z,101224.34
2022-11-05T07:35:56.795Z,101232.31
2022-11-05T07:39:58.240Z,101236.72
2022-11-05T07:43:59.657Z,101231.38
2022-11-05T07:48:02.956Z,101229.50
2022-11-05T07:52:04.685Z,101237.47
2022-11-05T07:56:06.378Z,101240.16
2022-11-05T08:00:09.121Z,101238.31
2022-11-05T08:04:13.846Z,101240.97
2022-11-05T08:08:17.687Z,101239.13
2022-11-05T08:12:19.124Z,101238.97
2022-11-05T08:16:23.271Z,101239.84
2022-11-05T08:20:24.760Z,101246.06
2022-11-05T08:24:26.217Z,101251.94
2022-11-05T08:28:27.881Z,101259.84
2022-11-05T08:32:29.384Z,101260.59
2022-11-05T08:36:30.918Z,101258.81
2022-11-05T08:40:34.497Z,101256.75
2022-11-05T08:44:39.506Z,101257.66
2022-11-05T08:48:40.922Z,101246.97
2022-11-05T08:52:42.401Z,101252.38
2022-11-05T08:56:44.745Z,101249.41
2022-11-05T09:00:48.437Z,101252.94
2022-11-05T09:04:49.897Z,101256.41
2022-11-05T09:08:51.450Z,101259.84
2022-11-05T09:12:52.912Z,101261.53
2022-11-05T09:16:54.390Z,101267.88
2022-11-05T09:20:55.805Z,101273.03
2022-11-05T09:24:57.243Z,101279.03
2022-11-05T09:28:58.662Z,101289.00
2022-11-05T09:33:00.103Z,101298.47
2022-11-05T09:37:01.831Z,101307.25
2022-11-05T09:41:29.999Z,101304.16
2022-11-05T09:45:35.322Z,101313.13
2022-11-05T09:49:49.965Z,101312.94
2022-11-05T09:53:53.383Z,101316.59
2022-11-05T09:57:58.700Z,101314.41
2022-11-05T10:02:12.798Z,101321.19
2022-11-05T10:06:20.451Z,101322.97
2022-11-05T10:10:40.310Z,101327.16
2022-11-05T10:14:58.929Z,101330.69
2022-11-05T10:19:09.774Z,101329.13
2022-11-05T10:23:19.953Z,101336.31
2022-11-05T10:27:27.989Z,101333.75
2022-11-05T10:31:35.585Z,101336.47
2022-11-05T10:35:47.432Z,101345.94
2022-11-05T10:39:49.980Z,101335.63
2022-11-05T10:44:01.750Z,101329.78
2022-11-05T10:48:11.937Z,101344.09
2022-11-05T10:52:35.950Z,101344.53
2022-11-05T10:56:40.213Z,101344.94
2022-11-05T11:00:59.740Z,101340.91
2022-11-05T11:05:01.436Z,101348.81
2022-11-05T11:09:06.602Z,101354.53
2022-11-05T11:13:27.107Z,101352.84
2022-11-05T11:17:31.074Z,101358.16
2022-11-05T11:21:33.073Z,101359.38
2022-11-05T11:25:53.807Z,101362.22
2022-11-05T11:29:59.073Z,101352.28
2022-11-05T11:34:06.797Z,101363.66
2022-11-05T11:38:13.803Z,101359.28
2022-11-05T11:42:22.150Z,101359.88
2022-11-05T11:46:23.649Z,101362.50
2022-11-05T11:50:30.951Z,101361.44
2022-11-05T11:54:34.311Z,101361.88
2022-11-05T11:58:57.018Z,101358.56
2022-11-05T12:03:31.297Z,101355.88
2022-11-05T12:07:47.179Z,101352.38
2022-11-05T12:12:05.105Z,101359.09
2022-11-05T12:16:13.500Z,101355.84
2022-11-05T12:20:24.284Z,101357.38
2022-11-05T12:24:43.269Z,101370.34
2022-11-05T12:29:18.512Z,101355.44
2022-11-05T12:33:38.428Z,101357.22
2022-11-05T12:38:09.110Z,101359.53
2022-11-05T12:42:21.698Z,101362.28
2022-11-05T12:46:29.117Z,101350.28
2022-11-05T12:50:38.138Z,101354.19
2022-11-05T12:54:51.698Z,101349.97
2022-11-05T12:59:05.984Z,101350.09
2022-11-05T13:03:25.387Z,101358.63
2022-11-05T13:07:38.288Z,101363.25
2022-11-05T13:11:51.148Z,101366.88
2022-11-05T13:16:28.399Z,101377.53
2022-11-05T13:20:34.063Z,101358.91
2022-11-05T13:24:40.899Z,101360.03
2022-11-05T13:28:55.573Z,101371.75
2022-11-05T13:33:04.110Z,101374.47
2022-11-05T13:37:27.378Z,101378.00
2022-11-05T13:42:02.458Z,101367.91
2022-11-05T13:46:11.378Z,101374.06
2022-11-05T13:50:32.853Z,101364.56
2022-11-05T13:55:20.949Z,101364.22
2022-11-05T13:59:51.750Z,101368.75
2022-11-05T14:03:56.160Z,101367.09
2022-11-05T14:08:00.870Z,101371.25
2022-11-05T14:12:05.075Z,101374.63
2022-11-05T14:16:20.751Z,101378.06
2022-11-05T14:20:37.225Z,101380.06
2022-11-05T14:24:44.158Z,101389.19
2022-11-05T14:28:48.604Z,101381.69
2022-11-05T14:32:53.079Z,101384.00
2022-11-05T14:37:09.468Z,101382.03
2022-11-05T14:41:10.939Z,101389.53
2022-11-05T14:45:27.135Z,101399.53
2022-11-05T14:49:49.154Z,101401.78
2022-11-05T14:53:57.777Z,101402.00
2022-11-05T14:57:59.204Z,101405.81
2022-11-05T15:02:00.737Z,101412.94
2022-11-05T15:06:18.882Z,101409.88
2022-11-05T15:10:23.035Z,101406.53
2022-11-05T15:14:31.911Z,101422.41
2022-11-05T15:18:40.501Z,101420.88
2022-11-05T15:22:49.152Z,101419.16
2022-11-05T15:27:12.342Z,101420.16
2022-11-05T15:31:13.837Z,101424.66
2022-11-05T15:35:24.695Z,101429.34
2022-11-05T15:39:40.187Z,101435.44
2022-11-05T15:43:48.055Z,101428.59
2022-11-05T15:47:49.689Z,101428.59
2022-11-05T15:51:51.101Z,101427.88
2022-11-05T15:55:57.894Z,101431.34
2022-11-05T16:00:02.561Z,101433.25
2022-11-05T16:04:21.766Z,101440.34
2022-11-05T16:08:26.535Z,101431.56
2022-11-05T16:12:32.889Z,101437.63
2022-11-05T16:16:34.927Z,101434.13
2022-11-05T16:20:38.357Z,101444.75
2022-11-05T16:24:40.043Z,101447.53
2022-11-05T16:28:41.662Z,101451.91
2022-11-05T16:32:43.357Z,101450.22
2022-11-05T16:36:44.907Z,101458.06
2022-11-05T16:40:46.345Z,101454.50
2022-11-05T16:44:48.343Z,101457.34
2022-11-05T16:48:49.891Z,101458.22
2022-11-05T16:52:52.123Z,101459.22
2022-11-05T16:56:53.628Z,101460.97
2022-11-05T17:01:13.089Z,101463.75
2022-11-05T17:05:19.501Z,101464.69
2022-11-05T17:09:21.008Z,101470.91
2022-11-05T17:13:22.805Z,101476.22
2022-11-05T17:17:24.305Z,101476.25
2022-11-05T17:21:25.989Z,101469.19
2022-11-05T17:25:28.519Z,101478.06
2022-11-05T17:29:30.052Z,101482.47
2022-11-05T17:33:34.753Z,101479.78
2022-11-05T17:37:40.562Z,101483.34
2022-11-05T17:41:50.215Z,101481.59
2022-11-05T17:46:15.506Z,101494.84
2022-11-05T17:50:21.793Z,101490.41
2022-11-05T17:54:23.578Z,101494.84
2022-11-05T17:58:26.201Z,101498.34
2022-11-05T18:02:29.444Z,101498.41
2022-11-05T18:06:32.043Z,101495.72
2022-11-05T18:10:36.767Z,101503.66
2022-11-05T18:14:38.330Z,101498.34
2022-11-05T18:18:39.958Z,101487.75
2022-11-05T18:22:41.999Z,101489.50
2022-11-05T18:26:43.738Z,101491.31
2022-11-05T18:30:45.710Z,101493.94
2022-11-05T18:34:47.435Z,101493.03
2022-11-05T18:38:49.651Z,101487.75
2022-11-05T18:42:51.499Z,101495.72
2022-11-05T18:47:00.352Z,101493.06
2022-11-05T18:51:08.462Z,101501.00
2022-11-05T18:55:10.265Z,101499.25
2022-11-05T18:59:35.098Z,101497.47
2022-11-05T19:03:35.720Z,101480.72
2022-11-05T19:07:38.599Z,101492.19
2022-11-05T19:11:41.147Z,101493.94
2022-11-05T19:15:43.885Z,101491.28
2022-11-05T19:19:45.324Z,101486.81
2022-11-05T19:23:46.911Z,101500.13
2022-11-05T19:27:49.068Z,101505.41
2022-11-05T19:38:03.170Z,101500.06
2022-11-05T19:42:05.180Z,101517.78
2022-11-05T19:46:09.964Z,101520.44
2022-11-05T19:50:11.470Z,101525.69
2022-11-05T19:54:13.217Z,101514.22
2022-11-05T19:58:15.361Z,101523.03
2022-11-05T20:02:17.270Z,101519.56
2022-11-05T20:06:22.413Z,101520.44
2022-11-05T20:10:24.070Z,101520.44
2022-11-05T20:14:27.308Z,101525.75
2022-11-05T20:18:29.540Z,101517.78
2022-11-05T20:22:31.036Z,101519.59
2022-11-05T20:26:32.932Z,101512.50
2022-11-05T20:30:35.654Z,101513.41
2022-11-05T20:34:37.309Z,101509.84
2022-11-05T20:38:44.728Z,101517.81
2022-11-05T20:42:46.160Z,101525.75
2022-11-05T20:46:47.680Z,101519.56
2022-11-05T20:50:50.556Z,101528.44
2022-11-05T20:54:52.237Z,101523.13
2022-11-05T20:58:55.578Z,101524.84
2022-11-05T21:02:57.341Z,101514.25
2022-11-05T21:06:58.865Z,101520.41
2022-11-05T21:11:00.942Z,101517.75
2022-11-05T21:15:02.655Z,101517.72
2022-11-05T21:19:04.101Z,101523.91
2022-11-05T21:23:05.573Z,101518.56
2022-11-05T21:27:07.147Z,101517.78
2022-11-05T21:31:09.292Z,101517.78
2022-11-05T21:35:10.751Z,101515.16
2022-11-05T21:39:14.012Z,101521.34
2022-11-05T21:43:16.157Z,101522.22
2022-11-05T21:47:17.857Z,101512.47
2022-11-05T21:51:38.232Z,101507.13
2022-11-05T21:55:59.815Z,101521.34
2022-11-05T22:00:02.118Z,101531.94
2022-11-05T22:04:05.820Z,101521.28
2022-11-05T22:08:07.905Z,101518.69
2022-11-05T22:12:10.155Z,101522.19
2022-11-05T22:16:11.970Z,101525.75
2022-11-05T22:20:13.772Z,101525.75
2022-11-05T22:24:15.918Z,101531.94
2022-11-05T22:28:17.495Z,101523.97
2022-11-05T22:32:20.759Z,101530.13
2022-11-05T22:36:22.906Z,101526.59
2022-11-05T22:40:24.804Z,101535.41
2022-11-05T22:44:27.923Z,101531.91
2022-11-05T22:48:29.339Z,101531.94
2022-11-05T22:52:31.095Z,101529.28
2022-11-05T22:56:35.407Z,101524.00
2022-11-05T23:00:38.054Z,101526.63
2022-11-05T23:04:39.729Z,101520.34
2022-11-05T23:09:00.393Z,101520.34
2022-11-05T23:13:02.153Z,101523.06
2022-11-05T23:17:22.580Z,101514.16
2022-11-05T23:21:42.895Z,101506.25
2022-11-05T23:25:44.368Z,101505.38
2022-11-05T23:29:46.401Z,101501.84
2022-11-05T23:33:47.926Z,101493.88
2022-11-05T23:38:08.261Z,101496.53
2022-11-05T23:42:29.466Z,101484.03
2022-11-05T23:46:49.537Z,101481.47
2022-11-05T23:50:57.397Z,101478.81
2022-11-05T23:54:58.952Z,101476.19
2022-11-05T23:59:01.066Z,101466.47
